createdAt,value
2019-05-19T00:02:04.747Z,1.32
2019-05-19T00:04:35.271Z,1.37
2019-05-19T00:07:05.879Z,1.37
2019-05-19T00:09:36.431Z,1.20
2019-05-19T00:12:07.139Z,1.22
2019-05-19T00:14:38.846Z,1.55
2019-05-19T00:17:09.463Z,1.35
2019-05-19T00:19:40.018Z,1.32
2019-05-19T00:22:10.406Z,1.30
2019-05-19T00:24:40.940Z,1.22
2019-05-19T00:27:11.740Z,1.62
2019-05-19T00:29:42.323Z,1.20
2019-05-19T00:32:12.922Z,1.50
2019-05-19T00:34:43.593Z,1.15
2019-05-19T00:37:14.151Z,1.10
2019-05-19T00:39:44.613Z,1.40
2019-05-19T00:42:15.127Z,1.22
2019-05-19T00:44:45.645Z,1.12
2019-05-19T00:47:16.312Z,1.30
2019-05-19T00:49:46.903Z,1.37
2019-05-19T00:52:17.571Z,1.40
2019-05-19T00:54:48.064Z,1.35
2019-05-19T00:57:19.295Z,1.20
2019-05-19T00:59:50.912Z,1.30
2019-05-19T01:02:21.594Z,1.47
2019-05-19T01:04:52.062Z,1.30
2019-05-19T01:07:22.603Z,1.32
2019-05-19T01:09:53.089Z,1.32
2019-05-19T01:12:23.746Z,1.17
2019-05-19T01:14:54.314Z,1.20
2019-05-19T01:17:24.835Z,1.40
2019-05-19T01:19:56.343Z,1.30
2019-05-19T01:22:27.436Z,1.50
2019-05-19T01:24:58.032Z,1.32
2019-05-19T01:27:28.693Z,1.35
2019-05-19T01:29:59.217Z,1.32
2019-05-19T01:32:29.826Z,1.37
2019-05-19T01:35:00.257Z,1.20
2019-05-19T01:37:30.830Z,1.40
2019-05-19T01:40:01.462Z,1.47
2019-05-19T01:42:31.972Z,1.10
2019-05-19T01:45:02.581Z,1.40
2019-05-19T01:47:34.071Z,1.20
2019-05-19T01:50:16.908Z,1.35
2019-05-19T01:52:36.925Z,1.22
2019-05-19T01:55:09.204Z,1.20
2019-05-19T01:57:39.792Z,1.30
2019-05-19T02:00:12.726Z,1.20
2019-05-19T02:02:43.347Z,1.27
2019-05-19T02:05:14.207Z,1.40
2019-05-19T02:07:44.805Z,1.45
2019-05-19T02:10:15.845Z,1.30
2019-05-19T02:12:46.341Z,1.50
2019-05-19T02:15:16.976Z,1.40
2019-05-19T02:17:48.647Z,1.30
2019-05-19T02:20:32.255Z,1.32
2019-05-19T02:22:51.698Z,1.35
2019-05-19T02:25:22.361Z,1.35
2019-05-19T02:27:54.573Z,1.57
2019-05-19T02:30:25.103Z,1.30
2019-05-19T02:32:55.639Z,1.30
2019-05-19T02:35:26.411Z,1.35
2019-05-19T02:37:57.143Z,1.35
2019-05-19T02:40:28.860Z,1.50
2019-05-19T02:43:00.967Z,1.40
2019-05-19T02:45:34.204Z,1.42
2019-05-19T02:48:06.645Z,1.60
2019-05-19T02:50:51.671Z,1.60
2019-05-19T02:53:11.414Z,1.77
2019-05-19T02:55:42.143Z,1.80
2019-05-19T02:58:13.282Z,1.42
2019-05-19T03:00:43.848Z,1.32
2019-05-19T03:03:15.559Z,1.27
2019-05-19T03:05:46.245Z,1.50
2019-05-19T03:08:16.636Z,1.80
2019-05-19T03:10:47.437Z,1.60
2019-05-19T03:13:19.060Z,1.65
2019-05-19T03:15:49.614Z,1.77
2019-05-19T03:18:20.433Z,1.47
2019-05-19T03:20:51.025Z,1.70
2019-05-19T03:23:21.540Z,1.70
2019-05-19T03:25:52.135Z,1.70
2019-05-19T03:28:23.756Z,1.57
2019-05-19T03:31:25.651Z,1.37
2019-05-19T03:33:56.207Z,1.70
2019-05-19T03:36:26.773Z,1.30
2019-05-19T03:38:57.296Z,1.92
2019-05-19T03:41:27.857Z,1.60
2019-05-19T03:43:58.308Z,1.32
2019-05-19T03:46:28.935Z,1.50
2019-05-19T03:48:59.509Z,1.70
2019-05-19T03:51:31.650Z,1.40
2019-05-19T03:54:02.130Z,1.47
2019-05-19T03:56:32.622Z,1.70
2019-05-19T03:59:04.254Z,1.90
2019-05-19T04:01:34.830Z,1.60
2019-05-19T04:04:05.999Z,1.45
2019-05-19T04:06:37.532Z,1.65
2019-05-19T04:09:08.153Z,1.77
2019-05-19T04:11:38.769Z,1.70
2019-05-19T04:14:09.187Z,1.60
2019-05-19T04:16:39.870Z,1.70
2019-05-19T04:19:10.444Z,1.80
2019-05-19T04:21:48.927Z,1.80
2019-05-19T04:24:14.273Z,1.90
2019-05-19T04:26:44.818Z,1.90
2019-05-19T04:29:15.355Z,2.08
2019-05-19T04:31:45.764Z,1.62
2019-05-19T04:34:16.371Z,1.60
2019-05-19T04:36:46.871Z,1.72
2019-05-19T04:39:17.276Z,1.82
2019-05-19T04:41:47.851Z,1.95
2019-05-19T04:44:18.333Z,1.70
2019-05-19T04:46:48.981Z,1.60
2019-05-19T04:49:20.541Z,1.57
2019-05-19T04:52:05.490Z,1.60
2019-05-19T04:54:23.386Z,1.70
2019-05-19T04:56:53.747Z,1.75
2019-05-19T04:59:24.293Z,1.90
2019-05-19T05:01:54.790Z,1.52
2019-05-19T05:04:29.152Z,1.95
2019-05-19T05:06:57.645Z,1.90
2019-05-19T05:09:28.086Z,1.57
2019-05-19T05:11:58.850Z,1.40
2019-05-19T05:14:29.400Z,1.67
2019-05-19T05:16:59.936Z,1.30
2019-05-19T05:19:30.579Z,1.67
2019-05-19T05:22:01.156Z,1.55
2019-05-19T05:24:31.860Z,1.42
2019-05-19T05:27:02.367Z,1.60
2019-05-19T05:29:33.709Z,1.60
2019-05-19T05:32:04.197Z,1.70
2019-05-19T05:34:34.573Z,1.42
2019-05-19T05:37:05.092Z,1.10
2019-05-19T05:39:35.610Z,1.10
2019-05-19T05:42:06.200Z,1.40
2019-05-19T05:44:36.682Z,1.42
2019-05-19T05:47:07.210Z,1.20
2019-05-19T05:49:37.681Z,1.27
2019-05-19T05:52:08.118Z,1.27
2019-05-19T05:54:38.753Z,1.50
2019-05-19T05:57:09.323Z,1.45
2019-05-19T05:59:39.946Z,1.70
2019-05-19T06:02:10.559Z,1.67
2019-05-19T06:04:41.140Z,1.55
2019-05-19T06:07:11.683Z,1.70
2019-05-19T06:09:43.499Z,1.80
2019-05-19T06:12:14.058Z,1.40
2019-05-19T06:14:44.623Z,1.50
2019-05-19T06:17:15.203Z,1.42
2019-05-19T06:19:47.725Z,1.22
2019-05-19T06:22:19.201Z,1.40
2019-05-19T06:24:50.068Z,1.35
2019-05-19T06:27:20.555Z,1.70
2019-05-19T06:29:51.032Z,1.80
2019-05-19T06:32:46.540Z,1.80
2019-05-19T06:35:18.713Z,1.40
2019-05-19T06:37:49.360Z,1.67
2019-05-19T06:40:20.017Z,1.90
2019-05-19T06:42:50.508Z,1.60
2019-05-19T06:45:21.037Z,1.85
2019-05-19T06:47:51.800Z,1.80
2019-05-19T06:50:22.358Z,1.55
2019-05-19T06:52:52.887Z,1.50
2019-05-19T06:55:23.622Z,1.98
2019-05-19T06:57:54.287Z,1.82
2019-05-19T07:00:25.845Z,1.87
2019-05-19T07:02:56.295Z,1.77
2019-05-19T07:05:26.946Z,1.80
2019-05-19T07:07:57.601Z,1.82
2019-05-19T07:10:28.136Z,3.20
2019-05-19T07:12:59.883Z,4.00
2019-05-19T07:15:30.384Z,4.45
2019-05-19T07:18:00.916Z,4.20
2019-05-19T07:20:31.497Z,4.17
2019-05-19T07:23:02.250Z,4.45
2019-05-19T07:25:32.886Z,3.62
2019-05-19T07:28:03.378Z,4.40
2019-05-19T07:30:37.174Z,4.70
2019-05-19T07:33:07.797Z,5.45
2019-05-19T07:35:39.410Z,5.15
2019-05-19T07:38:09.698Z,5.40
2019-05-19T07:40:39.996Z,6.37
2019-05-19T07:43:11.311Z,6.33
2019-05-19T07:45:41.688Z,5.53
2019-05-19T07:48:12.211Z,5.50
2019-05-19T07:50:42.798Z,5.05
2019-05-19T07:53:13.406Z,5.60
2019-05-19T07:55:45.216Z,4.72
2019-05-19T07:58:16.102Z,4.72
2019-05-19T08:00:46.677Z,4.67
2019-05-19T08:03:17.223Z,4.55
2019-05-19T08:05:48.860Z,4.35
2019-05-19T08:08:19.425Z,4.85
2019-05-19T08:10:49.944Z,4.67
2019-05-19T08:13:21.774Z,4.47
2019-05-19T08:15:52.624Z,4.78
2019-05-19T08:18:23.178Z,4.70
2019-05-19T08:20:54.037Z,4.12
2019-05-19T08:23:24.647Z,4.65
2019-05-19T08:25:55.294Z,5.10
2019-05-19T08:28:25.943Z,5.67
2019-05-19T08:30:56.634Z,4.97
2019-05-19T08:33:27.468Z,5.45
2019-05-19T08:35:58.027Z,5.10
2019-05-19T08:38:28.603Z,4.80
2019-05-19T08:40:59.187Z,5.30
2019-05-19T08:43:29.810Z,5.37
2019-05-19T08:46:00.437Z,4.45
2019-05-19T08:48:30.989Z,4.40
2019-05-19T08:51:01.557Z,4.58
2019-05-19T08:53:32.111Z,4.22
2019-05-19T08:56:02.661Z,3.60
2019-05-19T08:58:33.274Z,3.95
2019-05-19T09:01:03.882Z,3.67
2019-05-19T09:03:34.451Z,3.25
2019-05-19T09:06:05.195Z,3.33
2019-05-19T09:08:35.897Z,3.10
2019-05-19T09:11:06.480Z,3.20
2019-05-19T09:13:37.033Z,3.37
2019-05-19T09:16:07.631Z,3.05
2019-05-19T09:18:38.109Z,4.28
2019-05-19T09:21:08.589Z,3.12
2019-05-19T09:23:39.094Z,3.37
2019-05-19T09:26:09.729Z,3.52
2019-05-19T09:28:40.361Z,3.60
2019-05-19T09:31:10.928Z,3.80
2019-05-19T09:33:41.471Z,4.03
2019-05-19T09:36:11.987Z,3.02
2019-05-19T09:38:43.517Z,3.35
2019-05-19T09:41:14.095Z,3.20
2019-05-19T09:43:45.080Z,3.40
2019-05-19T09:46:15.666Z,3.47
2019-05-19T09:48:46.269Z,3.40
2019-05-19T09:51:16.982Z,3.08
2019-05-19T09:53:47.479Z,3.40
2019-05-19T09:56:17.959Z,3.20
2019-05-19T09:58:48.589Z,2.70
2019-05-19T10:01:19.011Z,2.60
2019-05-19T10:03:49.618Z,2.77
2019-05-19T10:06:20.137Z,2.90
2019-05-19T10:08:54.854Z,2.95
2019-05-19T10:11:42.940Z,2.77
2019-05-19T10:14:13.435Z,2.40
2019-05-19T10:16:44.006Z,2.72
2019-05-19T10:19:14.482Z,2.37
2019-05-19T10:21:45.329Z,2.35
2019-05-19T10:24:15.878Z,2.30
2019-05-19T10:26:47.433Z,2.08
2019-05-19T10:29:18.033Z,2.10
2019-05-19T10:31:48.767Z,2.20
2019-05-19T10:34:19.481Z,2.08
2019-05-19T10:36:50.011Z,2.00
2019-05-19T10:39:20.416Z,2.42
2019-05-19T10:41:50.957Z,2.40
2019-05-19T10:44:21.808Z,2.40
2019-05-19T10:46:52.412Z,2.10
2019-05-19T10:49:23.269Z,2.30
2019-05-19T10:51:53.867Z,2.33
2019-05-19T10:54:24.528Z,2.42
2019-05-19T10:56:55.079Z,2.40
2019-05-19T10:59:25.585Z,1.98
2019-05-19T11:01:56.199Z,2.50
2019-05-19T11:04:26.814Z,2.60
2019-05-19T11:06:57.470Z,2.65
2019-05-19T11:09:34.109Z,2.62
2019-05-19T11:12:04.548Z,2.83
2019-05-19T11:14:34.827Z,2.40
2019-05-19T11:17:05.184Z,2.30
2019-05-19T11:19:35.447Z,2.60
2019-05-19T11:22:05.739Z,2.50
2019-05-19T11:24:35.972Z,2.42
2019-05-19T11:27:06.300Z,2.67
2019-05-19T11:29:37.522Z,2.80
2019-05-19T11:32:07.885Z,2.55
2019-05-19T11:34:38.088Z,2.47
2019-05-19T11:37:08.282Z,2.40
2019-05-19T11:39:38.491Z,2.50
2019-05-19T11:42:08.683Z,2.42
2019-05-19T11:44:38.884Z,2.40
2019-05-19T11:47:09.215Z,2.17
2019-05-19T11:49:39.544Z,2.30
2019-05-19T11:52:10.687Z,2.50
2019-05-19T11:54:41.068Z,2.08
2019-05-19T11:57:11.279Z,1.95
2019-05-19T11:59:41.562Z,2.30
2019-05-19T12:02:11.819Z,2.20
2019-05-19T12:04:43.091Z,1.87
2019-05-19T12:07:13.306Z,2.50
2019-05-19T12:09:43.590Z,2.20
2019-05-19T12:12:13.887Z,2.02
2019-05-19T12:14:44.097Z,2.08
2019-05-19T12:17:14.397Z,1.90
2019-05-19T12:19:45.767Z,2.00
2019-05-19T12:22:16.139Z,1.90
2019-05-19T12:24:46.560Z,2.35
2019-05-19T12:27:16.763Z,2.20
2019-05-19T12:29:46.996Z,2.00
2019-05-19T12:32:18.292Z,2.00
2019-05-19T12:34:48.555Z,2.80
2019-05-19T12:37:19.088Z,2.10
2019-05-19T12:39:49.285Z,2.22
2019-05-19T12:42:19.637Z,2.30
2019-05-19T12:44:49.923Z,2.20
2019-05-19T12:47:20.152Z,2.30
2019-05-19T12:49:50.408Z,2.20
2019-05-19T12:52:20.906Z,4.15
2019-05-19T12:54:51.533Z,2.77
2019-05-19T12:57:21.745Z,2.40
2019-05-19T12:59:52.240Z,2.33
2019-05-19T13:02:22.661Z,2.33
2019-05-19T13:05:04.220Z,2.47
2019-05-19T13:07:25.059Z,2.47
2019-05-19T13:09:55.373Z,2.37
2019-05-19T13:12:25.744Z,2.22
2019-05-19T13:14:55.984Z,2.40
2019-05-19T13:17:26.526Z,2.50
2019-05-19T13:19:56.849Z,2.58
2019-05-19T13:22:27.065Z,2.35
2019-05-19T13:24:57.354Z,2.47
2019-05-19T13:27:27.749Z,2.40
2019-05-19T13:29:58.033Z,2.27
2019-05-19T13:32:28.622Z,2.20
2019-05-19T13:34:58.889Z,2.42
2019-05-19T13:37:30.183Z,2.00
2019-05-19T13:40:00.373Z,2.40
2019-05-19T13:42:30.895Z,2.20
2019-05-19T13:45:01.164Z,2.30
2019-05-19T13:47:31.514Z,1.92
2019-05-19T13:50:01.765Z,2.10
2019-05-19T13:52:32.067Z,1.70
2019-05-19T13:55:02.470Z,1.75
2019-05-19T13:57:32.847Z,1.70
2019-05-19T14:00:05.730Z,2.08
2019-05-19T14:02:37.640Z,2.17
2019-05-19T14:05:08.092Z,2.10
2019-05-19T14:07:38.644Z,2.27
2019-05-19T14:10:10.234Z,2.15
2019-05-19T14:12:40.577Z,2.00
2019-05-19T14:15:11.010Z,1.70
2019-05-19T14:17:41.179Z,1.72
2019-05-19T14:20:11.951Z,1.52
2019-05-19T14:22:42.259Z,1.57
2019-05-19T14:25:12.729Z,1.40
2019-05-19T14:27:42.942Z,1.80
2019-05-19T14:30:13.653Z,1.42
2019-05-19T14:32:43.883Z,1.50
2019-05-19T14:35:14.327Z,1.85
2019-05-19T14:37:44.654Z,1.67
2019-05-19T14:40:15.357Z,1.80
2019-05-19T14:42:55.397Z,1.60
2019-05-19T14:45:25.763Z,1.72
2019-05-19T14:47:56.145Z,1.65
2019-05-19T14:50:26.696Z,1.85
2019-05-19T14:52:57.076Z,1.80
2019-05-19T14:55:27.451Z,1.90
2019-05-19T14:57:57.685Z,2.10
2019-05-19T15:00:28.071Z,2.02
2019-05-19T15:02:58.339Z,2.30
2019-05-19T15:05:28.583Z,2.12
2019-05-19T15:07:58.944Z,2.00
2019-05-19T15:10:29.135Z,2.30
2019-05-19T15:12:59.612Z,2.30
2019-05-19T15:15:29.940Z,2.15
2019-05-19T15:18:00.178Z,2.30
2019-05-19T15:20:30.523Z,2.08
2019-05-19T15:23:00.696Z,2.75
2019-05-19T15:25:31.051Z,2.20
2019-05-19T15:28:05.078Z,2.60
2019-05-19T15:30:33.161Z,2.22
2019-05-19T15:33:03.424Z,2.40
2019-05-19T15:35:33.716Z,2.65
2019-05-19T15:38:04.100Z,2.27
2019-05-19T15:40:34.295Z,2.60
2019-05-19T15:43:04.555Z,2.25
2019-05-19T15:45:34.925Z,2.37
2019-05-19T15:48:05.232Z,2.20
2019-05-19T15:50:35.524Z,2.27
2019-05-19T15:53:05.801Z,2.20
2019-05-19T15:55:36.169Z,2.30
2019-05-19T15:58:16.280Z,3.90
2019-05-19T16:00:38.459Z,7.62
2019-05-19T16:03:08.843Z,2.12
2019-05-19T16:05:39.208Z,2.33
2019-05-19T16:08:09.494Z,2.00
2019-05-19T16:10:39.811Z,1.40
2019-05-19T16:13:10.004Z,1.65
2019-05-19T16:15:40.220Z,1.20
2019-05-19T16:18:10.645Z,1.60
2019-05-19T16:20:40.969Z,1.37
2019-05-19T16:23:12.301Z,1.47
2019-05-19T16:25:42.937Z,1.37
2019-05-19T16:28:14.580Z,1.42
2019-05-19T16:30:44.806Z,1.40
2019-05-19T16:33:15.201Z,1.10
2019-05-19T16:35:45.614Z,1.60
2019-05-19T16:38:16.058Z,1.30
2019-05-19T16:40:46.400Z,1.22
2019-05-19T16:43:16.748Z,1.70
2019-05-19T16:45:48.036Z,1.50
2019-05-19T16:48:19.314Z,1.25
2019-05-19T16:50:49.514Z,1.55
2019-05-19T16:53:19.942Z,1.40
2019-05-19T16:55:50.394Z,1.52
2019-05-19T16:58:21.800Z,2.00
2019-05-19T17:00:52.180Z,6.08
2019-05-19T17:03:22.532Z,3.98
2019-05-19T17:05:52.812Z,1.47
2019-05-19T17:08:23.164Z,1.37
2019-05-19T17:10:53.400Z,1.00
2019-05-19T17:13:23.703Z,1.02
2019-05-19T17:15:54.130Z,1.50
2019-05-19T17:18:24.484Z,1.37
2019-05-19T17:20:54.878Z,1.90
2019-05-19T17:23:25.235Z,1.98
2019-05-19T17:25:55.660Z,6.08
2019-05-19T17:28:25.998Z,9.70
2019-05-19T17:30:56.234Z,7.85
2019-05-19T17:33:26.500Z,3.72
2019-05-19T17:35:56.775Z,2.60
2019-05-19T17:38:27.090Z,2.62
2019-05-19T17:40:57.375Z,2.20
2019-05-19T17:43:27.650Z,1.70
2019-05-19T17:45:57.835Z,1.80
2019-05-19T17:48:28.133Z,2.40
2019-05-19T17:50:58.395Z,2.80
2019-05-19T17:53:28.683Z,1.70
2019-05-19T17:55:59.896Z,1.30
2019-05-19T17:58:31.352Z,1.12
2019-05-19T18:01:01.690Z,1.42
2019-05-19T18:03:32.427Z,2.00
2019-05-19T18:06:02.756Z,2.00
2019-05-19T18:08:34.034Z,2.10
2019-05-19T18:11:04.382Z,2.27
2019-05-19T18:13:34.612Z,2.60
2019-05-19T18:16:04.818Z,2.30
2019-05-19T18:18:35.013Z,1.65
2019-05-19T18:21:05.368Z,1.85
2019-05-19T18:23:35.583Z,1.70
2019-05-19T18:26:07.390Z,1.75
2019-05-19T18:28:37.763Z,1.80
2019-05-19T18:31:08.116Z,1.90
2019-05-19T18:33:38.386Z,2.10
2019-05-19T18:36:08.660Z,1.98
2019-05-19T18:38:38.930Z,1.40
2019-05-19T18:41:09.211Z,1.50
2019-05-19T18:43:39.533Z,1.50
2019-05-19T18:46:09.728Z,1.40
2019-05-19T18:48:39.923Z,2.20
2019-05-19T18:51:10.115Z,1.70
2019-05-19T18:53:40.395Z,2.72
2019-05-19T18:56:10.672Z,2.10
2019-05-19T18:58:41.132Z,1.60
2019-05-19T19:01:11.425Z,1.75
2019-05-19T19:03:41.832Z,1.65
2019-05-19T19:06:12.187Z,1.90
2019-05-19T19:08:42.580Z,2.00
2019-05-19T19:11:12.779Z,1.47
2019-05-19T19:13:43.088Z,1.70
2019-05-19T19:16:13.459Z,2.20
2019-05-19T19:18:43.656Z,2.50
2019-05-19T19:21:13.933Z,1.72
2019-05-19T19:23:44.348Z,1.72
2019-05-19T19:26:14.767Z,1.90
2019-05-19T19:28:45.015Z,2.10
2019-05-19T19:31:15.217Z,1.98
2019-05-19T19:33:45.407Z,2.20
2019-05-19T19:36:15.691Z,2.22
2019-05-19T19:38:45.989Z,1.55
2019-05-19T19:41:16.352Z,1.60
2019-05-19T19:43:46.733Z,2.08
2019-05-19T19:46:17.145Z,1.67
2019-05-19T19:48:47.459Z,1.77
2019-05-19T19:51:19.057Z,1.60
2019-05-19T19:53:49.280Z,1.92
2019-05-19T19:56:19.593Z,1.85
2019-05-19T19:58:49.913Z,1.70
2019-05-19T20:01:20.188Z,1.32
2019-05-19T20:03:50.514Z,1.85
2019-05-19T20:06:20.844Z,1.47
2019-05-19T20:08:51.111Z,1.60
2019-05-19T20:11:22.499Z,1.50
2019-05-19T20:13:52.853Z,1.70
2019-05-19T20:16:23.345Z,1.70
2019-05-19T20:18:53.670Z,1.80
2019-05-19T20:21:23.975Z,1.40
2019-05-19T20:23:54.760Z,1.50
2019-05-19T20:26:26.170Z,1.50
2019-05-19T20:28:56.418Z,1.40
2019-05-19T20:31:26.613Z,1.70
2019-05-19T20:33:57.465Z,1.40
2019-05-19T20:36:27.687Z,1.60
2019-05-19T20:38:58.060Z,1.75
2019-05-19T20:41:28.411Z,1.17
2019-05-19T20:43:58.644Z,1.50
2019-05-19T20:46:28.868Z,1.50
2019-05-19T20:49:00.087Z,1.80
2019-05-19T20:51:33.199Z,2.95
2019-05-19T20:54:03.455Z,2.47
2019-05-19T20:56:33.883Z,1.60
2019-05-19T20:59:04.231Z,1.70
2019-05-19T21:01:34.574Z,1.70
2019-05-19T21:04:04.895Z,1.45
2019-05-19T21:06:35.251Z,1.60
2019-05-19T21:09:06.134Z,1.90
2019-05-19T21:11:36.519Z,1.70
2019-05-19T21:14:07.811Z,1.85
2019-05-19T21:16:38.019Z,1.60
2019-05-19T21:19:09.910Z,1.75
2019-05-19T21:21:40.221Z,1.67
2019-05-19T21:24:10.473Z,1.55
2019-05-19T21:26:40.797Z,1.82
2019-05-19T21:29:11.010Z,1.70
2019-05-19T21:31:41.360Z,2.00
2019-05-19T21:34:11.946Z,2.60
2019-05-19T21:36:42.141Z,3.00
2019-05-19T21:39:12.440Z,2.80
2019-05-19T21:41:42.631Z,2.12
2019-05-19T21:44:12.822Z,2.35
2019-05-19T21:46:44.116Z,2.02
2019-05-19T21:49:14.438Z,2.62
2019-05-19T21:51:44.708Z,2.30
2019-05-19T21:54:15.045Z,1.70
2019-05-19T21:56:45.341Z,2.12
2019-05-19T21:59:15.947Z,2.50
2019-05-19T22:01:46.586Z,2.37
2019-05-19T22:04:18.579Z,2.55
2019-05-19T22:06:54.972Z,2.40
2019-05-19T22:09:25.210Z,2.87
2019-05-19T22:11:55.475Z,2.15
2019-05-19T22:14:25.685Z,2.50
2019-05-19T22:16:55.890Z,2.65
2019-05-19T22:19:26.147Z,2.15
2019-05-19T22:21:56.425Z,2.10
2019-05-19T22:24:26.600Z,1.72
2019-05-19T22:26:56.924Z,1.85
2019-05-19T22:29:27.195Z,2.00
2019-05-19T22:31:57.583Z,1.60
2019-05-19T22:34:28.153Z,1.72
2019-05-19T22:36:58.455Z,1.80
2019-05-19T22:39:28.726Z,1.65
2019-05-19T22:41:59.065Z,1.50
2019-05-19T22:44:29.352Z,1.80
2019-05-19T22:46:59.639Z,1.70
2019-05-19T22:49:29.925Z,1.92
2019-05-19T22:52:01.093Z,1.70
2019-05-19T22:54:31.404Z,1.57
2019-05-19T22:57:01.824Z,1.67
2019-05-19T22:59:32.028Z,1.55
2019-05-19T23:02:02.248Z,1.60
2019-05-19T23:04:32.905Z,1.60
2019-05-19T23:07:03.351Z,6.97
2019-05-19T23:09:33.639Z,1.80
2019-05-19T23:12:03.938Z,2.15
2019-05-19T23:14:34.293Z,1.60
2019-05-19T23:17:04.795Z,2.00
2019-05-19T23:19:35.213Z,1.62
2019-05-19T23:22:05.564Z,2.20
2019-05-19T23:24:35.823Z,1.75
2019-05-19T23:27:06.103Z,1.70
2019-05-19T23:29:36.428Z,1.95
2019-05-19T23:32:07.536Z,1.45
2019-05-19T23:34:37.928Z,1.57
2019-05-19T23:37:08.346Z,1.62
2019-05-19T23:39:38.569Z,1.95
2019-05-19T23:42:08.760Z,1.70
2019-05-19T23:44:39.099Z,1.40
2019-05-19T23:47:09.383Z,2.10
2019-05-19T23:49:39.722Z,1.95
2019-05-19T23:52:09.921Z,2.17
2019-05-19T23:54:40.113Z,1.55
2019-05-19T23:57:10.495Z,1.87
2019-05-19T23:59:40.702Z,1.60
